createdAt,value
2023-03-06T00:01:26.232Z,7.53
2023-03-06T00:03:57.053Z,9.07
2023-03-06T00:06:28.928Z,5.22
2023-03-06T00:09:01.464Z,7.65
2023-03-06T00:11:33.166Z,6.22
2023-03-06T00:14:05.164Z,9.20
2023-03-06T00:16:38.606Z,7.70
2023-03-06T00:19:11.123Z,10.77
2023-03-06T00:21:44.021Z,6.65
2023-03-06T00:24:14.795Z,5.85
2023-03-06T00:26:44.909Z,13.65
2023-03-06T00:29:19.247Z,10.93
2023-03-06T00:31:51.050Z,5.97
2023-03-06T00:34:23.092Z,9.20
2023-03-06T00:36:57.880Z,7.97
2023-03-06T00:39:30.102Z,8.20
2023-03-06T00:42:03.252Z,8.80
2023-03-06T00:44:35.127Z,4.65
2023-03-06T00:47:05.885Z,9.15
2023-03-06T00:49:37.868Z,14.32
2023-03-06T00:52:10.026Z,8.70
2023-03-06T00:54:42.418Z,8.05
2023-03-06T00:57:13.852Z,4.78
2023-03-06T00:59:51.298Z,8.27
2023-03-06T01:02:28.158Z,15.45
2023-03-06T01:05:05.625Z,8.32
2023-03-06T01:07:38.303Z,10.80
2023-03-06T01:10:11.403Z,9.98
2023-03-06T01:12:42.576Z,4.88
2023-03-06T01:15:15.129Z,9.75
2023-03-06T01:17:45.603Z,6.25
2023-03-06T01:20:18.910Z,8.63
2023-03-06T01:22:49.599Z,5.82
2023-03-06T01:25:19.512Z,11.63
2023-03-06T01:27:49.785Z,11.55
2023-03-06T01:30:20.442Z,8.60
2023-03-06T01:32:51.129Z,10.15
2023-03-06T01:35:21.106Z,11.02
2023-03-06T01:37:51.028Z,6.03
2023-03-06T01:40:21.496Z,11.63
2023-03-06T01:42:53.098Z,7.10
2023-03-06T01:45:25.775Z,8.18
2023-03-06T01:47:56.985Z,7.32
2023-03-06T01:50:27.759Z,8.43
2023-03-06T01:53:01.611Z,10.65
2023-03-06T01:55:35.335Z,7.15
2023-03-06T01:58:11.201Z,7.85
2023-03-06T02:00:41.779Z,7.90
2023-03-06T02:03:16.683Z,8.63
2023-03-06T02:05:47.753Z,10.88
2023-03-06T02:08:21.831Z,20.02
2023-03-06T02:11:10.595Z,9.63
2023-03-06T02:13:41.755Z,9.20
2023-03-06T02:16:13.431Z,11.07
2023-03-06T02:18:45.793Z,7.40
2023-03-06T02:21:26.703Z,8.00
2023-03-06T02:24:26.277Z,3.17
2023-03-06T02:26:57.736Z,11.68
2023-03-06T02:29:31.552Z,9.80
2023-03-06T02:32:06.821Z,7.15
2023-03-06T02:34:40.275Z,9.65
2023-03-06T02:37:12.755Z,13.25
2023-03-06T02:39:49.501Z,9.07
2023-03-06T02:42:22.839Z,15.90
2023-03-06T02:44:55.192Z,11.15
2023-03-06T02:47:25.530Z,10.68
2023-03-06T02:49:56.837Z,10.25
2023-03-06T02:52:27.781Z,6.95
2023-03-06T02:54:58.851Z,13.10
2023-03-06T02:57:29.145Z,9.35
2023-03-06T03:00:02.197Z,10.07
2023-03-06T03:02:32.935Z,12.98
2023-03-06T03:05:03.206Z,14.98
2023-03-06T03:07:33.499Z,12.48
2023-03-06T03:10:06.658Z,12.45
2023-03-06T03:12:38.425Z,13.73
2023-03-06T03:15:10.029Z,16.40
2023-03-06T03:17:42.453Z,14.77
2023-03-06T03:20:15.957Z,12.82
2023-03-06T03:22:53.720Z,12.27
2023-03-06T03:25:27.428Z,13.18
2023-03-06T03:28:00.129Z,16.08
2023-03-06T03:30:30.364Z,14.32
2023-03-06T03:33:01.357Z,10.25
2023-03-06T03:35:32.681Z,11.63
2023-03-06T03:38:03.662Z,15.43
2023-03-06T03:40:35.094Z,11.77
2023-03-06T03:43:05.578Z,14.00
2023-03-06T03:45:36.196Z,17.83
2023-03-06T03:48:07.493Z,9.07
2023-03-06T03:50:37.860Z,16.45
2023-03-06T03:53:08.287Z,11.70
2023-03-06T03:55:41.154Z,15.23
2023-03-06T03:58:11.167Z,11.57
2023-03-06T04:00:41.016Z,16.30
2023-03-06T04:03:16.864Z,14.27
2023-03-06T04:05:48.851Z,14.98
2023-03-06T04:08:20.709Z,11.05
2023-03-06T04:10:53.720Z,11.23
2023-03-06T04:13:25.693Z,19.33
2023-03-06T04:15:57.625Z,20.48
2023-03-06T04:18:31.206Z,11.15
2023-03-06T04:21:06.665Z,12.75
2023-03-06T04:23:37.271Z,12.60
2023-03-06T04:26:09.305Z,11.70
2023-03-06T04:28:41.511Z,18.27
2023-03-06T04:31:14.057Z,16.27
2023-03-06T04:33:44.610Z,14.10
2023-03-06T04:36:29.744Z,10.70
2023-03-06T04:39:04.771Z,9.30
2023-03-06T04:41:36.630Z,12.13
2023-03-06T04:44:08.025Z,13.07
2023-03-06T04:46:38.890Z,14.10
2023-03-06T04:49:09.542Z,14.63
2023-03-06T04:51:39.346Z,11.93
2023-03-06T04:54:09.272Z,15.13
2023-03-06T04:56:40.916Z,8.25
2023-03-06T04:59:11.584Z,14.13
2023-03-06T05:01:42.112Z,14.55
2023-03-06T05:04:12.272Z,12.35
2023-03-06T05:06:42.336Z,10.63
2023-03-06T05:09:12.626Z,19.85
2023-03-06T05:11:42.989Z,14.13
2023-03-06T05:14:13.252Z,13.73
2023-03-06T05:16:43.029Z,12.82
2023-03-06T05:19:12.943Z,8.98
2023-03-06T05:21:43.251Z,9.10
2023-03-06T05:24:13.915Z,7.57
2023-03-06T05:26:43.862Z,10.63
2023-03-06T05:29:13.802Z,11.23
2023-03-06T05:31:44.915Z,10.77
2023-03-06T05:34:20.132Z,12.70
2023-03-06T05:36:50.177Z,14.35
2023-03-06T05:39:20.088Z,11.50
2023-03-06T05:41:50.192Z,9.63
2023-03-06T05:44:20.398Z,10.45
2023-03-06T05:46:52.266Z,12.02
2023-03-06T05:49:22.309Z,12.48
2023-03-06T05:51:52.080Z,11.15
2023-03-06T05:54:22.498Z,7.68
2023-03-06T05:56:52.792Z,7.35
2023-03-06T05:59:23.470Z,8.25
2023-03-06T06:01:53.419Z,7.43
2023-03-06T06:04:26.814Z,8.40
2023-03-06T06:07:02.787Z,10.13
2023-03-06T06:09:33.853Z,9.70
2023-03-06T06:12:04.924Z,10.85
2023-03-06T06:14:36.616Z,9.93
2023-03-06T06:17:07.154Z,6.18
2023-03-06T06:19:37.947Z,11.35
2023-03-06T06:22:07.934Z,6.43
2023-03-06T06:24:37.716Z,8.93
2023-03-06T06:27:08.891Z,8.43
2023-03-06T06:29:39.242Z,14.55
2023-03-06T06:32:10.139Z,11.75
2023-03-06T06:34:40.586Z,4.72
2023-03-06T06:37:11.282Z,10.18
2023-03-06T06:39:42.299Z,6.18
2023-03-06T06:42:35.117Z,10.70
2023-03-06T06:45:06.402Z,9.43
2023-03-06T06:47:38.205Z,9.95
2023-03-06T06:50:14.522Z,9.80
2023-03-06T06:52:45.285Z,6.85
2023-03-06T06:55:16.215Z,5.70
2023-03-06T06:57:46.457Z,5.75
2023-03-06T07:00:18.006Z,6.60
2023-03-06T07:02:52.675Z,15.55
2023-03-06T07:05:23.073Z,6.55
2023-03-06T07:07:53.650Z,6.88
2023-03-06T07:10:23.838Z,12.18
2023-03-06T07:12:54.256Z,4.85
2023-03-06T07:15:28.054Z,6.97
2023-03-06T07:17:58.384Z,7.40
2023-03-06T07:20:28.233Z,5.78
2023-03-06T07:22:59.573Z,6.05
2023-03-06T07:25:31.442Z,6.70
2023-03-06T07:28:01.317Z,5.82
2023-03-06T07:30:32.467Z,7.75
2023-03-06T07:33:02.944Z,10.15
2023-03-06T07:35:33.431Z,4.47
2023-03-06T07:38:03.925Z,7.35
2023-03-06T07:40:34.212Z,5.50
2023-03-06T07:43:17.133Z,9.07
2023-03-06T07:46:03.616Z,6.53
2023-03-06T07:48:34.414Z,8.60
2023-03-06T07:51:09.590Z,6.55
2023-03-06T07:53:40.339Z,7.75
2023-03-06T07:56:12.272Z,9.43
2023-03-06T07:58:46.178Z,8.02
2023-03-06T08:01:19.773Z,7.97
2023-03-06T08:03:51.118Z,7.25
2023-03-06T08:06:27.068Z,4.15
2023-03-06T08:08:58.342Z,5.07
2023-03-06T08:11:31.690Z,4.38
2023-03-06T08:14:02.086Z,4.80
2023-03-06T08:16:32.596Z,7.97
2023-03-06T08:19:02.764Z,4.20
2023-03-06T08:21:33.092Z,3.35
2023-03-06T08:24:02.872Z,5.38
2023-03-06T08:26:33.684Z,2.20
2023-03-06T08:29:04.828Z,5.25
2023-03-06T08:31:44.024Z,5.65
2023-03-06T08:34:18.989Z,4.82
2023-03-06T08:36:49.242Z,6.38
2023-03-06T08:39:19.356Z,2.03
2023-03-06T08:41:49.884Z,7.28
2023-03-06T08:44:20.280Z,3.33
2023-03-06T08:46:50.070Z,4.47
2023-03-06T08:49:20.205Z,5.70
2023-03-06T08:51:50.125Z,2.47
2023-03-06T08:54:22.148Z,6.72
2023-03-06T08:56:53.004Z,4.70
2023-03-06T08:59:23.078Z,4.32
2023-03-06T09:01:53.343Z,2.85
2023-03-06T09:04:24.468Z,4.07
2023-03-06T09:06:56.264Z,5.95
2023-03-06T09:09:26.573Z,3.63
2023-03-06T09:11:57.454Z,3.95
2023-03-06T09:14:28.843Z,1.42
2023-03-06T09:16:59.030Z,9.80
2023-03-06T09:19:31.979Z,10.13
2023-03-06T09:22:02.222Z,5.45
2023-03-06T09:24:33.021Z,7.63
2023-03-06T09:27:03.960Z,5.95
2023-03-06T09:29:35.902Z,7.65
2023-03-06T09:32:06.186Z,6.18
2023-03-06T09:34:35.932Z,5.55
2023-03-06T09:37:06.172Z,5.40
2023-03-06T09:39:36.829Z,3.35
2023-03-06T09:42:16.758Z,1.77
2023-03-06T09:44:54.288Z,4.90
2023-03-06T09:47:49.079Z,4.85
2023-03-06T09:50:29.204Z,5.47
2023-03-06T09:53:18.643Z,3.08
2023-03-06T09:55:57.946Z,6.47
2023-03-06T09:58:30.972Z,8.65
2023-03-06T10:01:24.902Z,3.47
2023-03-06T10:04:01.282Z,3.67
2023-03-06T10:06:36.178Z,3.90
2023-03-06T10:09:14.835Z,2.35
2023-03-06T10:11:47.793Z,4.57
2023-03-06T10:14:37.409Z,0.40
2023-03-06T10:17:16.197Z,1.13
2023-03-06T10:19:48.969Z,2.83
2023-03-06T10:22:25.635Z,3.22
2023-03-06T10:24:58.504Z,4.20
2023-03-06T10:27:46.782Z,8.38
2023-03-06T10:30:47.791Z,3.75
2023-03-06T10:46:33.190Z,13.57
2023-03-06T10:49:07.904Z,10.27
2023-03-06T10:51:38.250Z,11.23
2023-03-06T10:54:15.473Z,8.13
2023-03-06T10:56:47.984Z,14.80
2023-03-06T10:59:34.891Z,14.52
2023-03-06T11:02:31.079Z,8.65
2023-03-06T11:05:04.805Z,8.23
2023-03-06T11:07:37.379Z,7.38
2023-03-06T11:10:22.201Z,7.65
2023-03-06T11:13:03.864Z,12.98
2023-03-06T11:15:33.927Z,9.00
2023-03-06T11:18:11.919Z,11.60
2023-03-06T11:20:53.202Z,12.02
2023-03-06T11:23:42.076Z,10.05
2023-03-06T11:26:27.349Z,12.80
2023-03-06T11:29:19.991Z,10.43
2023-03-06T11:32:13.930Z,5.85
2023-03-06T11:34:50.673Z,11.25
2023-03-06T11:37:50.872Z,9.13
2023-03-06T11:40:27.223Z,7.68
2023-03-06T11:43:25.659Z,3.45
2023-03-06T11:46:05.666Z,5.55
2023-03-06T11:48:43.712Z,1.38
2023-03-06T11:51:22.942Z,1.10
2023-03-06T11:53:54.291Z,0.60
2023-03-06T11:56:31.667Z,1.25
2023-03-06T11:59:13.544Z,2.35
2023-03-06T12:02:07.858Z,0.82
2023-03-06T12:07:27.673Z,1.73
2023-03-06T12:10:28.925Z,1.80
2023-03-06T12:13:20.823Z,1.63
2023-03-06T12:16:12.861Z,2.70
2023-03-06T12:18:43.004Z,2.05
2023-03-06T12:21:44.340Z,1.40
2023-03-06T12:24:36.308Z,2.22
2023-03-06T12:27:27.672Z,3.53
2023-03-06T12:30:16.579Z,1.73
2023-03-06T12:33:01.772Z,2.05
2023-03-06T12:35:55.994Z,1.98
2023-03-06T12:41:22.900Z,0.98
2023-03-06T12:44:10.915Z,1.77
2023-03-06T12:46:50.863Z,3.50
2023-03-06T12:49:32.905Z,1.35
2023-03-06T12:52:06.144Z,0.38
2023-03-06T12:54:40.203Z,0.50
2023-03-06T12:57:13.666Z,1.13
2023-03-06T12:59:49.946Z,0.70
2023-03-06T13:02:55.282Z,0.88
2023-03-06T13:05:39.887Z,2.15
2023-03-06T13:08:14.233Z,7.72
2023-03-06T13:10:49.846Z,1.88
2023-03-06T13:13:45.155Z,2.53
2023-03-06T13:16:24.250Z,0.95
2023-03-06T13:19:25.522Z,2.95
2023-03-06T13:22:00.453Z,1.27
2023-03-06T13:24:39.006Z,0.98
2023-03-06T13:27:13.826Z,1.02
2023-03-06T13:30:14.900Z,0.80
2023-03-06T13:32:45.221Z,1.38
2023-03-06T13:35:35.700Z,1.63
2023-03-06T13:38:06.459Z,1.83
2023-03-06T13:40:37.248Z,1.73
2023-03-06T13:43:11.634Z,2.92
2023-03-06T13:45:45.332Z,1.38
2023-03-06T13:48:44.667Z,1.13
2023-03-06T13:51:26.773Z,1.10
2023-03-06T13:54:00.565Z,11.98
2023-03-06T13:56:39.763Z,0.93
2023-03-06T13:59:15.202Z,1.30
2023-03-06T14:02:14.453Z,3.42
2023-03-06T14:05:00.680Z,0.73
2023-03-06T14:07:38.177Z,2.65
2023-03-06T14:10:17.939Z,1.35
2023-03-06T14:12:51.314Z,0.35
2023-03-06T14:15:34.096Z,1.15
2023-03-06T14:18:18.416Z,0.57
2023-03-06T14:21:05.547Z,0.93
2023-03-06T14:23:48.872Z,0.88
2023-03-06T14:26:24.619Z,1.40
2023-03-06T14:28:54.699Z,0.73
2023-03-06T14:31:27.619Z,2.53
2023-03-06T14:34:02.700Z,3.53
2023-03-06T14:36:33.609Z,3.13
2023-03-06T14:39:09.940Z,1.45
2023-03-06T14:41:54.341Z,3.45
2023-03-06T14:44:27.764Z,3.35
2023-03-06T14:47:12.828Z,2.05
2023-03-06T14:49:43.359Z,0.60
2023-03-06T14:52:20.209Z,0.75
2023-03-06T14:54:51.494Z,6.05
2023-03-06T14:57:24.796Z,0.63
2023-03-06T15:00:00.992Z,2.53
2023-03-06T15:02:34.109Z,0.98
2023-03-06T15:05:14.596Z,1.35
2023-03-06T15:07:45.912Z,6.07
2023-03-06T15:10:55.707Z,8.00
2023-03-06T15:13:29.439Z,4.80
2023-03-06T15:16:15.734Z,6.75
2023-03-06T15:19:06.659Z,0.82
2023-03-06T15:21:40.087Z,17.52
2023-03-06T15:24:37.432Z,3.22
2023-03-06T15:27:18.439Z,0.57
2023-03-06T15:29:49.945Z,8.43
2023-03-06T15:32:37.249Z,5.60
2023-03-06T15:35:37.903Z,6.90
2023-03-06T15:38:32.392Z,1.75
2023-03-06T15:41:04.386Z,8.65
2023-03-06T15:43:40.481Z,1.17
2023-03-06T15:46:10.726Z,1.48
2023-03-06T15:48:40.675Z,0.75
2023-03-06T15:51:11.158Z,1.90
2023-03-06T15:53:42.130Z,4.05
2023-03-06T15:56:14.413Z,3.63
2023-03-06T15:58:44.772Z,9.02
2023-03-06T16:01:19.847Z,6.22
2023-03-06T16:03:50.704Z,3.42
2023-03-06T16:06:28.675Z,0.77
2023-03-06T16:08:58.954Z,4.45
2023-03-06T16:11:43.291Z,3.95
2023-03-06T16:14:22.179Z,1.33
2023-03-06T16:16:55.742Z,3.65
2023-03-06T16:19:28.095Z,1.85
2023-03-06T16:21:58.632Z,1.20
2023-03-06T16:24:28.589Z,0.90
2023-03-06T16:27:02.623Z,2.60
2023-03-06T16:29:33.163Z,2.33
2023-03-06T16:32:03.453Z,2.13
2023-03-06T16:34:33.577Z,2.45
2023-03-06T16:37:04.160Z,1.65
2023-03-06T16:39:35.000Z,2.78
2023-03-06T16:42:04.927Z,3.35
2023-03-06T16:44:35.135Z,3.10
2023-03-06T16:47:05.703Z,2.58
2023-03-06T16:49:37.881Z,3.75
2023-03-06T16:52:09.895Z,2.95
2023-03-06T16:54:40.555Z,1.52
2023-03-06T16:57:15.068Z,3.13
2023-03-06T16:59:45.798Z,2.00
2023-03-06T17:02:16.644Z,1.60
2023-03-06T17:04:47.377Z,1.98
2023-03-06T17:07:17.606Z,3.60
2023-03-06T17:09:47.856Z,3.28
2023-03-06T17:12:18.336Z,3.97
2023-03-06T17:14:48.547Z,4.13
2023-03-06T17:17:18.440Z,1.55
2023-03-06T17:19:52.441Z,6.00
2023-03-06T17:22:23.512Z,1.30
2023-03-06T17:24:53.684Z,3.92
2023-03-06T17:27:24.874Z,4.10
2023-03-06T17:29:55.513Z,5.55
2023-03-06T17:32:25.354Z,5.82
2023-03-06T17:34:58.590Z,2.95
2023-03-06T17:37:29.854Z,5.40
2023-03-06T17:40:00.427Z,8.55
2023-03-06T17:42:30.141Z,2.50
2023-03-06T17:45:00.658Z,2.58
2023-03-06T17:47:31.378Z,6.00
2023-03-06T17:50:02.005Z,4.38
2023-03-06T17:52:32.502Z,10.13
2023-03-06T17:55:02.538Z,5.15
2023-03-06T17:57:32.761Z,4.53
2023-03-06T18:00:02.837Z,4.72
2023-03-06T18:02:42.550Z,5.65
2023-03-06T18:05:14.360Z,7.68
2023-03-06T18:07:45.018Z,5.18
2023-03-06T18:10:15.243Z,7.75
2023-03-06T18:12:45.339Z,10.27
2023-03-06T18:15:16.372Z,4.18
2023-03-06T18:17:47.098Z,3.10
2023-03-06T18:20:18.000Z,2.60
2023-03-06T18:22:49.450Z,2.60
2023-03-06T18:25:19.793Z,6.00
2023-03-06T18:27:50.201Z,2.17
2023-03-06T18:30:20.484Z,4.03
2023-03-06T18:32:51.691Z,4.90
2023-03-06T18:35:23.344Z,11.00
2023-03-06T18:37:53.743Z,4.97
2023-03-06T18:40:24.862Z,4.03
2023-03-06T18:42:56.159Z,4.75
2023-03-06T18:45:29.656Z,8.32
2023-03-06T18:47:59.756Z,4.30
2023-03-06T18:50:29.556Z,4.25
2023-03-06T18:52:59.829Z,4.63
2023-03-06T18:55:29.914Z,14.15
2023-03-06T18:58:02.595Z,9.18
2023-03-06T19:00:32.584Z,7.25
2023-03-06T19:03:02.532Z,6.68
2023-03-06T19:05:32.647Z,9.10
2023-03-06T19:08:04.056Z,2.08
2023-03-06T19:10:40.521Z,5.40
2023-03-06T19:13:11.943Z,7.38
2023-03-06T19:15:47.009Z,6.13
2023-03-06T19:18:19.180Z,7.57
2023-03-06T19:20:51.485Z,6.22
2023-03-06T19:23:22.626Z,0.73
2023-03-06T19:25:59.831Z,2.60
2023-03-06T19:28:30.639Z,1.17
2023-03-06T19:31:00.804Z,3.67
2023-03-06T19:33:31.485Z,15.13
2023-03-06T19:36:03.925Z,3.22
2023-03-06T19:38:34.747Z,1.40
2023-03-06T19:41:05.896Z,3.25
2023-03-06T19:43:37.110Z,5.63
2023-03-06T19:46:07.427Z,2.60
2023-03-06T19:48:37.395Z,3.92
2023-03-06T19:51:09.662Z,4.88
2023-03-06T19:53:41.058Z,4.15
2023-03-06T19:56:17.164Z,5.97
2023-03-06T19:58:47.307Z,3.40
2023-03-06T20:01:22.579Z,3.38
2023-03-06T20:03:59.943Z,4.32
2023-03-06T20:06:34.606Z,8.52
2023-03-06T20:09:08.087Z,2.75
2023-03-06T20:11:38.963Z,11.07
2023-03-06T20:14:10.434Z,8.30
2023-03-06T20:16:41.318Z,5.03
2023-03-06T20:19:13.847Z,6.05
2023-03-06T20:21:45.079Z,5.65
2023-03-06T20:24:20.962Z,3.42
2023-03-06T20:26:52.265Z,4.97
2023-03-06T20:29:22.856Z,7.53
2023-03-06T20:31:56.366Z,7.47
2023-03-06T20:34:28.027Z,5.55
2023-03-06T20:36:58.985Z,3.78
2023-03-06T20:39:29.476Z,4.50
2023-03-06T20:42:01.156Z,4.88
2023-03-06T20:44:32.279Z,1.08
2023-03-06T20:47:02.241Z,3.92
2023-03-06T20:49:32.031Z,4.28
2023-03-06T20:52:02.365Z,3.75
2023-03-06T20:54:32.647Z,2.53
2023-03-06T20:57:03.065Z,1.52
2023-03-06T20:59:33.577Z,1.70
2023-03-06T21:02:04.907Z,2.60
2023-03-06T21:04:35.930Z,1.50
2023-03-06T21:07:07.180Z,7.25
2023-03-06T21:09:39.487Z,2.50
2023-03-06T21:12:09.915Z,3.00
2023-03-06T21:14:41.058Z,5.13
2023-03-06T21:17:13.950Z,3.38
2023-03-06T21:19:44.936Z,2.15
2023-03-06T21:22:15.300Z,6.13
2023-03-06T21:24:45.341Z,1.20
2023-03-06T21:27:16.978Z,2.35
2023-03-06T21:29:47.611Z,1.17
2023-03-06T21:32:17.579Z,4.57
2023-03-06T21:34:47.640Z,3.20
2023-03-06T21:37:17.376Z,2.58
2023-03-06T21:39:47.821Z,4.43
2023-03-06T21:42:18.307Z,2.25
2023-03-06T21:44:49.371Z,6.07
2023-03-06T21:47:19.310Z,6.03
2023-03-06T21:49:50.765Z,3.03
2023-03-06T21:52:21.945Z,5.03
2023-03-06T21:54:52.554Z,5.20
2023-03-06T21:57:22.282Z,4.45
2023-03-06T21:59:52.439Z,9.30
2023-03-06T22:02:22.507Z,9.70
2023-03-06T22:04:54.011Z,6.60
2023-03-06T22:07:25.407Z,4.82
2023-03-06T22:09:56.186Z,5.35
2023-03-06T22:12:26.655Z,2.80
2023-03-06T22:14:57.508Z,6.63
2023-03-06T22:17:28.301Z,6.15
2023-03-06T22:19:58.722Z,5.57
2023-03-06T22:22:29.156Z,9.10
2023-03-06T22:25:00.670Z,5.82
2023-03-06T22:27:31.922Z,4.47
2023-03-06T22:30:02.036Z,5.60
2023-03-06T22:32:34.891Z,5.47
2023-03-06T22:35:05.514Z,5.80
2023-03-06T22:37:35.652Z,5.13
2023-03-06T22:40:06.359Z,5.45
2023-03-06T22:42:36.478Z,5.30
2023-03-06T22:45:07.536Z,3.85
2023-03-06T22:47:40.999Z,8.38
2023-03-06T22:50:12.718Z,4.90
2023-03-06T22:52:43.444Z,7.32
2023-03-06T22:55:13.200Z,7.07
2023-03-06T22:57:46.840Z,5.10
2023-03-06T23:00:18.094Z,6.78
2023-03-06T23:02:48.824Z,4.88
2023-03-06T23:05:18.623Z,3.90
2023-03-06T23:07:48.666Z,1.15
2023-03-06T23:10:20.216Z,5.90
2023-03-06T23:13:09.300Z,4.68
2023-03-06T23:15:58.061Z,2.83
2023-03-06T23:18:46.292Z,6.25
2023-03-06T23:21:35.918Z,6.20
2023-03-06T23:24:25.322Z,2.60
2023-03-06T23:26:56.204Z,11.05
2023-03-06T23:29:26.437Z,9.70
2023-03-06T23:31:56.195Z,7.90
2023-03-06T23:34:27.033Z,14.40
2023-03-06T23:36:57.723Z,8.23
2023-03-06T23:39:28.439Z,5.50
2023-03-06T23:42:01.467Z,7.88
2023-03-06T23:44:34.403Z,10.68
2023-03-06T23:47:06.747Z,4.68
2023-03-06T23:49:41.686Z,5.45
2023-03-06T23:52:13.303Z,5.05
2023-03-06T23:54:45.439Z,7.63
2023-03-06T23:57:17.939Z,7.47
2023-03-06T23:59:50.018Z,10.57
